sensor_id;sensor_type;location;lat;lon;timestamp;P1;P2;P0
28026;PMS5003;15344;52.342;-1.290;2022-07-12T00:01:51;17;14;
28026;PMS5003;15344;52.342;-1.290;2022-07-12T00:04:17;15;14;
28026;PMS5003;15344;52.342;-1.290;2022-07-12T00:06:42;11;11;
28026;PMS5003;15344;52.342;-1.290;2022-07-12T00:09:07;15;15;
28026;PMS5003;15344;52.342;-1.290;2022-07-12T00:11:32;12;12;
28026;PMS5003;15344;52.342;-1.290;2022-07-12T00:13:57;16;12;
28026;PMS5003;15344;52.342;-1.290;2022-07-12T00:16:22;18;15;
28026;PMS5003;15344;52.342;-1.290;2022-07-12T00:18:47;14;14;
28026;PMS5003;15344;52.342;-1.290;2022-07-12T00:21:12;15;12;
28026;PMS5003;15344;52.342;-1.290;2022-07-12T00:23:37;16;10;
28026;PMS5003;15344;52.342;-1.290;2022-07-12T00:26:03;15;12;
28026;PMS5003;15344;52.342;-1.290;2022-07-12T00:28:28;10;9;
28026;PMS5003;15344;52.342;-1.290;2022-07-12T00:30:53;9;9;
28026;PMS5003;15344;52.342;-1.290;2022-07-12T00:33:18;12;10;
28026;PMS5003;15344;52.342;-1.290;2022-07-12T00:35:44;12;9;
28026;PMS5003;15344;52.342;-1.290;2022-07-12T00:38:08;10;9;
28026;PMS5003;15344;52.342;-1.290;2022-07-12T00:40:34;10;9;
28026;PMS5003;15344;52.342;-1.290;2022-07-12T00:42:59;12;10;
28026;PMS5003;15344;52.342;-1.290;2022-07-12T00:45:24;13;9;
28026;PMS5003;15344;52.342;-1.290;2022-07-12T00:47:49;6;6;
28026;PMS5003;15344;52.342;-1.290;2022-07-12T00:50:15;10;7;
28026;PMS5003;15344;52.342;-1.290;2022-07-12T00:52:40;9;7;
28026;PMS5003;15344;52.342;-1.290;2022-07-12T00:55:05;7;7;
28026;PMS5003;15344;52.342;-1.290;2022-07-12T00:57:30;11;8;
28026;PMS5003;15344;52.342;-1.290;2022-07-12T00:59:55;4;4;
28026;PMS5003;15344;52.342;-1.290;2022-07-12T01:02:20;7;6;
28026;PMS5003;15344;52.342;-1.290;2022-07-12T01:04:45;5;5;
28026;PMS5003;15344;52.342;-1.290;2022-07-12T01:07:10;5;5;
28026;PMS5003;15344;52.342;-1.290;2022-07-12T01:09:35;6;5;
28026;PMS5003;15344;52.342;-1.290;2022-07-12T01:12:00;7;6;
28026;PMS5003;15344;52.342;-1.290;2022-07-12T01:14:25;8;6;
28026;PMS5003;15344;52.342;-1.290;2022-07-12T01:16:50;5;4;
28026;PMS5003;15344;52.342;-1.290;2022-07-12T01:19:15;8;5;
28026;PMS5003;15344;52.342;-1.290;2022-07-12T01:21:40;4;2;
28026;PMS5003;15344;52.342;-1.290;2022-07-12T01:24:06;5;5;
28026;PMS5003;15344;52.342;-1.290;2022-07-12T01:26:30;4;4;
28026;PMS5003;15344;52.342;-1.290;2022-07-12T01:28:55;5;5;
28026;PMS5003;15344;52.342;-1.290;2022-07-12T01:31:20;6;4;
28026;PMS5003;15344;52.342;-1.290;2022-07-12T01:33:45;6;4;
28026;PMS5003;15344;52.342;-1.290;2022-07-12T01:36:10;3;3;
28026;PMS5003;15344;52.342;-1.290;2022-07-12T01:38:36;5;4;
28026;PMS5003;15344;52.342;-1.290;2022-07-12T01:41:03;5;4;
28026;PMS5003;15344;52.342;-1.290;2022-07-12T01:43:28;3;3;
28026;PMS5003;15344;52.342;-1.290;2022-07-12T01:45:54;3;3;
28026;PMS5003;15344;52.342;-1.290;2022-07-12T01:48:20;4;4;
28026;PMS5003;15344;52.342;-1.290;2022-07-12T01:50:46;6;3;
28026;PMS5003;15344;52.342;-1.290;2022-07-12T01:53:11;4;4;
28026;PMS5003;15344;52.342;-1.290;2022-07-12T01:55:37;7;5;
28026;PMS5003;15344;52.342;-1.290;2022-07-12T01:58:03;3;3;
28026;PMS5003;15344;52.342;-1.290;2022-07-12T02:00:29;3;3;
28026;PMS5003;15344;52.342;-1.290;2022-07-12T02:02:55;4;4;
28026;PMS5003;15344;52.342;-1.290;2022-07-12T02:05:19;6;4;
28026;PMS5003;15344;52.342;-1.290;2022-07-12T02:07:45;4;4;
28026;PMS5003;15344;52.342;-1.290;2022-07-12T02:10:10;3;3;
28026;PMS5003;15344;52.342;-1.290;2022-07-12T02:12:35;5;3;
28026;PMS5003;15344;52.342;-1.290;2022-07-12T02:15:00;6;5;
28026;PMS5003;15344;52.342;-1.290;2022-07-12T02:17:25;5;4;
28026;PMS5003;15344;52.342;-1.290;2022-07-12T02:19:50;4;4;
28026;PMS5003;15344;52.342;-1.290;2022-07-12T02:22:16;6;5;
28026;PMS5003;15344;52.342;-1.290;2022-07-12T02:24:42;4;4;
28026;PMS5003;15344;52.342;-1.290;2022-07-12T02:27:08;4;4;
28026;PMS5003;15344;52.342;-1.290;2022-07-12T02:29:34;3;3;
28026;PMS5003;15344;52.342;-1.290;2022-07-12T02:32:00;5;5;
28026;PMS5003;15344;52.342;-1.290;2022-07-12T02:34:26;6;4;
28026;PMS5003;15344;52.342;-1.290;2022-07-12T02:36:51;5;4;
28026;PMS5003;15344;52.342;-1.290;2022-07-12T02:39:16;5;5;
28026;PMS5003;15344;52.342;-1.290;2022-07-12T02:41:41;5;4;
28026;PMS5003;15344;52.342;-1.290;2022-07-12T02:44:06;6;6;
28026;PMS5003;15344;52.342;-1.290;2022-07-12T02:46:31;5;4;
28026;PMS5003;15344;52.342;-1.290;2022-07-12T02:48:56;6;4;
28026;PMS5003;15344;52.342;-1.290;2022-07-12T02:51:21;6;5;
28026;PMS5003;15344;52.342;-1.290;2022-07-12T02:53:46;9;8;
28026;PMS5003;15344;52.342;-1.290;2022-07-12T02:56:12;5;5;
28026;PMS5003;15344;52.342;-1.290;2022-07-12T02:58:36;6;6;
28026;PMS5003;15344;52.342;-1.290;2022-07-12T03:01:02;8;5;
28026;PMS5003;15344;52.342;-1.290;2022-07-12T03:03:26;10;6;
28026;PMS5003;15344;52.342;-1.290;2022-07-12T03:05:51;7;6;
28026;PMS5003;15344;52.342;-1.290;2022-07-12T03:08:16;8;7;
28026;PMS5003;15344;52.342;-1.290;2022-07-12T03:10:42;7;7;
28026;PMS5003;15344;52.342;-1.290;2022-07-12T03:13:06;9;7;
28026;PMS5003;15344;52.342;-1.290;2022-07-12T03:15:31;6;5;
28026;PMS5003;15344;52.342;-1.290;2022-07-12T03:17:57;4;4;
28026;PMS5003;15344;52.342;-1.290;2022-07-12T03:20:22;7;6;
28026;PMS5003;15344;52.342;-1.290;2022-07-12T03:22:47;4;4;
28026;PMS5003;15344;52.342;-1.290;2022-07-12T03:25:12;8;5;
28026;PMS5003;15344;52.342;-1.290;2022-07-12T03:27:37;7;5;
28026;PMS5003;15344;52.342;-1.290;2022-07-12T03:30:02;8;8;
28026;PMS5003;15344;52.342;-1.290;2022-07-12T03:32:28;5;5;
28026;PMS5003;15344;52.342;-1.290;2022-07-12T03:34:52;7;7;
28026;PMS5003;15344;52.342;-1.290;2022-07-12T03:37:17;7;6;
28026;PMS5003;15344;52.342;-1.290;2022-07-12T03:39:42;7;6;
28026;PMS5003;15344;52.342;-1.290;2022-07-12T03:42:07;8;5;
28026;PMS5003;15344;52.342;-1.290;2022-07-12T03:44:32;3;3;
28026;PMS5003;15344;52.342;-1.290;2022-07-12T03:46:57;6;6;
28026;PMS5003;15344;52.342;-1.290;2022-07-12T03:49:22;6;5;
28026;PMS5003;15344;52.342;-1.290;2022-07-12T03:51:48;9;9;
28026;PMS5003;15344;52.342;-1.290;2022-07-12T03:54:13;7;7;
28026;PMS5003;15344;52.342;-1.290;2022-07-12T03:56:37;12;9;
28026;PMS5003;15344;52.342;-1.290;2022-07-12T03:59:03;11;11;
28026;PMS5003;15344;52.342;-1.290;2022-07-12T04:01:28;12;10;
28026;PMS5003;15344;52.342;-1.290;2022-07-12T04:03:54;10;10;
28026;PMS5003;15344;52.342;-1.290;2022-07-12T04:06:18;12;11;
28026;PMS5003;15344;52.342;-1.290;2022-07-12T04:08:43;13;10;
28026;PMS5003;15344;52.342;-1.290;2022-07-12T04:11:09;12;11;
28026;PMS5003;15344;52.342;-1.290;2022-07-12T04:13:34;16;15;
28026;PMS5003;15344;52.342;-1.290;2022-07-12T04:16:00;16;13;
28026;PMS5003;15344;52.342;-1.290;2022-07-12T04:18:25;18;14;
28026;PMS5003;15344;52.342;-1.290;2022-07-12T04:20:50;18;15;
28026;PMS5003;15344;52.342;-1.290;2022-07-12T04:23:15;18;15;
28026;PMS5003;15344;52.342;-1.290;2022-07-12T04:25:40;15;14;
28026;PMS5003;15344;52.342;-1.290;2022-07-12T04:28:05;20;15;
28026;PMS5003;15344;52.342;-1.290;2022-07-12T04:30:31;20;19;
28026;PMS5003;15344;52.342;-1.290;2022-07-12T04:32:56;15;14;
28026;PMS5003;15344;52.342;-1.290;2022-07-12T04:35:21;17;16;
28026;PMS5003;15344;52.342;-1.290;2022-07-12T04:37:47;19;16;
28026;PMS5003;15344;52.342;-1.290;2022-07-12T04:40:12;15;14;
28026;PMS5003;15344;52.342;-1.290;2022-07-12T04:42:38;16;13;
28026;PMS5003;15344;52.342;-1.290;2022-07-12T04:45:03;17;14;
28026;PMS5003;15344;52.342;-1.290;2022-07-12T04:47:29;17;16;
28026;PMS5003;15344;52.342;-1.290;2022-07-12T04:49:54;22;19;
28026;PMS5003;15344;52.342;-1.290;2022-07-12T04:52:19;18;17;
28026;PMS5003;15344;52.342;-1.290;2022-07-12T04:54:44;21;17;
28026;PMS5003;15344;52.342;-1.290;2022-07-12T04:57:09;16;15;
28026;PMS5003;15344;52.342;-1.290;2022-07-12T04:59:35;19;17;
28026;PMS5003;15344;52.342;-1.290;2022-07-12T05:02:01;17;14;
28026;PMS5003;15344;52.342;-1.290;2022-07-12T05:04:26;19;16;
28026;PMS5003;15344;52.342;-1.290;2022-07-12T05:06:51;16;16;
28026;PMS5003;15344;52.342;-1.290;2022-07-12T05:09:17;20;18;
28026;PMS5003;15344;52.342;-1.290;2022-07-12T05:11:43;22;15;
28026;PMS5003;15344;52.342;-1.290;2022-07-12T05:14:08;16;16;
28026;PMS5003;15344;52.342;-1.290;2022-07-12T05:16:33;22;15;
28026;PMS5003;15344;52.342;-1.290;2022-07-12T05:18:59;17;13;
28026;PMS5003;15344;52.342;-1.290;2022-07-12T05:21:23;20;16;
28026;PMS5003;15344;52.342;-1.290;2022-07-12T05:23:48;15;15;
28026;PMS5003;15344;52.342;-1.290;2022-07-12T05:26:14;15;13;
28026;PMS5003;15344;52.342;-1.290;2022-07-12T05:28:39;17;15;
28026;PMS5003;15344;52.342;-1.290;2022-07-12T05:31:05;14;13;
28026;PMS5003;15344;52.342;-1.290;2022-07-12T05:33:30;16;12;
28026;PMS5003;15344;52.342;-1.290;2022-07-12T05:35:55;17;13;
28026;PMS5003;15344;52.342;-1.290;2022-07-12T05:38:21;13;13;
28026;PMS5003;15344;52.342;-1.290;2022-07-12T05:40:46;12;12;
28026;PMS5003;15344;52.342;-1.290;2022-07-12T05:43:11;13;11;
28026;PMS5003;15344;52.342;-1.290;2022-07-12T05:45:37;13;10;
28026;PMS5003;15344;52.342;-1.290;2022-07-12T05:48:03;12;11;
28026;PMS5003;15344;52.342;-1.290;2022-07-12T05:50:29;10;10;
28026;PMS5003;15344;52.342;-1.290;2022-07-12T05:52:53;9;9;
28026;PMS5003;15344;52.342;-1.290;2022-07-12T05:55:18;10;8;
28026;PMS5003;15344;52.342;-1.290;2022-07-12T05:57:43;9;9;
28026;PMS5003;15344;52.342;-1.290;2022-07-12T06:00:08;9;8;
28026;PMS5003;15344;52.342;-1.290;2022-07-12T06:02:33;11;9;
28026;PMS5003;15344;52.342;-1.290;2022-07-12T06:04:58;13;13;
28026;PMS5003;15344;52.342;-1.290;2022-07-12T06:07:24;9;9;
28026;PMS5003;15344;52.342;-1.290;2022-07-12T06:09:49;10;9;
28026;PMS5003;15344;52.342;-1.290;2022-07-12T06:12:14;11;10;
28026;PMS5003;15344;52.342;-1.290;2022-07-12T06:14:39;13;8;
28026;PMS5003;15344;52.342;-1.290;2022-07-12T06:17:05;10;8;
28026;PMS5003;15344;52.342;-1.290;2022-07-12T06:19:30;14;9;
28026;PMS5003;15344;52.342;-1.290;2022-07-12T06:21:55;10;10;
28026;PMS5003;15344;52.342;-1.290;2022-07-12T06:24:20;14;10;
28026;PMS5003;15344;52.342;-1.290;2022-07-12T06:26:45;8;7;
28026;PMS5003;15344;52.342;-1.290;2022-07-12T06:29:10;9;9;
28026;PMS5003;15344;52.342;-1.290;2022-07-12T06:31:35;11;7;
28026;PMS5003;15344;52.342;-1.290;2022-07-12T06:34:01;13;11;
28026;PMS5003;15344;52.342;-1.290;2022-07-12T06:36:26;7;7;
28026;PMS5003;15344;52.342;-1.290;2022-07-12T06:38:51;9;7;
28026;PMS5003;15344;52.342;-1.290;2022-07-12T06:41:17;5;5;
28026;PMS5003;15344;52.342;-1.290;2022-07-12T06:43:43;6;6;
28026;PMS5003;15344;52.342;-1.290;2022-07-12T06:46:08;7;5;
28026;PMS5003;15344;52.342;-1.290;2022-07-12T06:48:34;7;5;
28026;PMS5003;15344;52.342;-1.290;2022-07-12T06:51:00;8;6;
28026;PMS5003;15344;52.342;-1.290;2022-07-12T06:53:26;9;7;
28026;PMS5003;15344;52.342;-1.290;2022-07-12T06:55:51;6;4;
28026;PMS5003;15344;52.342;-1.290;2022-07-12T06:58:17;5;4;
28026;PMS5003;15344;52.342;-1.290;2022-07-12T07:00:43;5;5;
28026;PMS5003;15344;52.342;-1.290;2022-07-12T07:03:09;5;5;
28026;PMS5003;15344;52.342;-1.290;2022-07-12T07:05:35;7;4;
28026;PMS5003;15344;52.342;-1.290;2022-07-12T07:08:01;6;5;
28026;PMS5003;15344;52.342;-1.290;2022-07-12T07:10:27;3;3;
28026;PMS5003;15344;52.342;-1.290;2022-07-12T07:12:52;6;4;
28026;PMS5003;15344;52.342;-1.290;2022-07-12T07:15:17;4;3;
28026;PMS5003;15344;52.342;-1.290;2022-07-12T07:17:43;3;3;
28026;PMS5003;15344;52.342;-1.290;2022-07-12T07:20:09;4;4;
28026;PMS5003;15344;52.342;-1.290;2022-07-12T07:22:34;3;3;
28026;PMS5003;15344;52.342;-1.290;2022-07-12T07:25:00;5;4;
28026;PMS5003;15344;52.342;-1.290;2022-07-12T07:27:26;2;2;
28026;PMS5003;15344;52.342;-1.290;2022-07-12T07:29:52;4;2;
28026;PMS5003;15344;52.342;-1.290;2022-07-12T07:32:18;8;5;
28026;PMS5003;15344;52.342;-1.290;2022-07-12T07:34:43;3;3;
28026;PMS5003;15344;52.342;-1.290;2022-07-12T07:37:09;4;4;
28026;PMS5003;15344;52.342;-1.290;2022-07-12T07:39:35;3;3;
28026;PMS5003;15344;52.342;-1.290;2022-07-12T07:42:01;4;4;
28026;PMS5003;15344;52.342;-1.290;2022-07-12T07:44:27;3;3;
28026;PMS5003;15344;52.342;-1.290;2022-07-12T07:46:53;5;2;
28026;PMS5003;15344;52.342;-1.290;2022-07-12T07:49:18;5;4;
28026;PMS5003;15344;52.342;-1.290;2022-07-12T07:51:44;5;3;
28026;PMS5003;15344;52.342;-1.290;2022-07-12T07:54:10;2;2;
28026;PMS5003;15344;52.342;-1.290;2022-07-12T07:56:36;3;3;
28026;PMS5003;15344;52.342;-1.290;2022-07-12T07:59:02;4;3;
28026;PMS5003;15344;52.342;-1.290;2022-07-12T08:01:28;6;4;
28026;PMS5003;15344;52.342;-1.290;2022-07-12T08:03:54;4;2;
28026;PMS5003;15344;52.342;-1.290;2022-07-12T08:06:19;4;4;
28026;PMS5003;15344;52.342;-1.290;2022-07-12T08:08:45;5;5;
28026;PMS5003;15344;52.342;-1.290;2022-07-12T08:11:11;3;3;
28026;PMS5003;15344;52.342;-1.290;2022-07-12T08:13:37;3;3;
28026;PMS5003;15344;52.342;-1.290;2022-07-12T08:16:03;4;3;
28026;PMS5003;15344;52.342;-1.290;2022-07-12T08:18:29;3;3;
28026;PMS5003;15344;52.342;-1.290;2022-07-12T08:20:55;6;5;
28026;PMS5003;15344;52.342;-1.290;2022-07-12T08:23:20;3;3;
28026;PMS5003;15344;52.342;-1.290;2022-07-12T08:25:46;3;3;
28026;PMS5003;15344;52.342;-1.290;2022-07-12T08:28:12;3;3;
28026;PMS5003;15344;52.342;-1.290;2022-07-12T08:30:38;5;4;
28026;PMS5003;15344;52.342;-1.290;2022-07-12T08:33:04;2;2;
28026;PMS5003;15344;52.342;-1.290;2022-07-12T08:35:30;2;2;
28026;PMS5003;15344;52.342;-1.290;2022-07-12T08:37:56;3;3;
28026;PMS5003;15344;52.342;-1.290;2022-07-12T08:40:21;2;2;
28026;PMS5003;15344;52.342;-1.290;2022-07-12T08:42:47;3;3;
28026;PMS5003;15344;52.342;-1.290;2022-07-12T08:45:13;2;2;
28026;PMS5003;15344;52.342;-1.290;2022-07-12T08:47:39;3;3;
28026;PMS5003;15344;52.342;-1.290;2022-07-12T08:52:30;6;3;
28026;PMS5003;15344;52.342;-1.290;2022-07-12T08:54:56;2;2;
28026;PMS5003;15344;52.342;-1.290;2022-07-12T08:59:48;2;2;
28026;PMS5003;15344;52.342;-1.290;2022-07-12T09:02:13;3;3;
28026;PMS5003;15344;52.342;-1.290;2022-07-12T09:04:39;1;1;
28026;PMS5003;15344;52.342;-1.290;2022-07-12T09:09:31;2;2;
28026;PMS5003;15344;52.342;-1.290;2022-07-12T09:11:57;3;3;
28026;PMS5003;15344;52.342;-1.290;2022-07-12T09:14:22;2;2;
28026;PMS5003;15344;52.342;-1.290;2022-07-12T09:19:14;7;4;
28026;PMS5003;15344;52.342;-1.290;2022-07-12T09:24:06;3;3;
28026;PMS5003;15344;52.342;-1.290;2022-07-12T09:26:32;0;0;
28026;PMS5003;15344;52.342;-1.290;2022-07-12T09:31:23;2;2;
28026;PMS5003;15344;52.342;-1.290;2022-07-12T09:36:14;5;5;
28026;PMS5003;15344;52.342;-1.290;2022-07-12T09:38:48;3;3;
28026;PMS5003;15344;52.342;-1.290;2022-07-12T09:41:07;2;2;
28026;PMS5003;15344;52.342;-1.290;2022-07-12T09:43:31;3;3;
28026;PMS5003;15344;52.342;-1.290;2022-07-12T09:45:57;3;3;
28026;PMS5003;15344;52.342;-1.290;2022-07-12T09:48:22;2;2;
28026;PMS5003;15344;52.342;-1.290;2022-07-12T09:50:49;4;3;
28026;PMS5003;15344;52.342;-1.290;2022-07-12T09:53:17;3;3;
28026;PMS5003;15344;52.342;-1.290;2022-07-12T09:55:40;2;1;
28026;PMS5003;15344;52.342;-1.290;2022-07-12T09:58:06;2;2;
28026;PMS5003;15344;52.342;-1.290;2022-07-12T10:00:31;3;3;
28026;PMS5003;15344;52.342;-1.290;2022-07-12T10:02:58;6;3;
28026;PMS5003;15344;52.342;-1.290;2022-07-12T10:05:23;3;3;
28026;PMS5003;15344;52.342;-1.290;2022-07-12T10:07:49;3;3;
28026;PMS5003;15344;52.342;-1.290;2022-07-12T10:10:14;3;3;
28026;PMS5003;15344;52.342;-1.290;2022-07-12T10:12:40;2;2;
28026;PMS5003;15344;52.342;-1.290;2022-07-12T10:15:08;2;2;
28026;PMS5003;15344;52.342;-1.290;2022-07-12T10:17:31;4;4;
28026;PMS5003;15344;52.342;-1.290;2022-07-12T10:22:23;1;1;
28026;PMS5003;15344;52.342;-1.290;2022-07-12T10:24:49;4;3;
28026;PMS5003;15344;52.342;-1.290;2022-07-12T10:29:40;3;3;
28026;PMS5003;15344;52.342;-1.290;2022-07-12T10:34:32;2;2;
28026;PMS5003;15344;52.342;-1.290;2022-07-12T10:39:24;2;2;
28026;PMS5003;15344;52.342;-1.290;2022-07-12T10:44:15;2;2;
28026;PMS5003;15344;52.342;-1.290;2022-07-12T10:46:56;2;2;
28026;PMS5003;15344;52.342;-1.290;2022-07-12T10:51:32;3;2;
28026;PMS5003;15344;52.342;-1.290;2022-07-12T10:53:58;2;2;
28026;PMS5003;15344;52.342;-1.290;2022-07-12T10:56:24;3;3;
28026;PMS5003;15344;52.342;-1.290;2022-07-12T10:58:50;3;3;
28026;PMS5003;15344;52.342;-1.290;2022-07-12T11:01:16;2;2;
28026;PMS5003;15344;52.342;-1.290;2022-07-12T11:03:42;2;2;
28026;PMS5003;15344;52.342;-1.290;2022-07-12T11:06:07;2;2;
28026;PMS5003;15344;52.342;-1.290;2022-07-12T11:08:32;5;3;
28026;PMS5003;15344;52.342;-1.290;2022-07-12T11:10:58;3;3;
28026;PMS5003;15344;52.342;-1.290;2022-07-12T11:13:24;5;3;
28026;PMS5003;15344;52.342;-1.290;2022-07-12T11:20:41;3;3;
28026;PMS5003;15344;52.342;-1.290;2022-07-12T11:23:07;6;3;
28026;PMS5003;15344;52.342;-1.290;2022-07-12T11:25:33;4;2;
28026;PMS5003;15344;52.342;-1.290;2022-07-12T11:27:58;3;3;
28026;PMS5003;15344;52.342;-1.290;2022-07-12T11:30:24;4;4;
28026;PMS5003;15344;52.342;-1.290;2022-07-12T11:32:50;2;2;
28026;PMS5003;15344;52.342;-1.290;2022-07-12T11:35:17;3;3;
28026;PMS5003;15344;52.342;-1.290;2022-07-12T11:40:07;3;3;
28026;PMS5003;15344;52.342;-1.290;2022-07-12T11:42:33;3;3;
28026;PMS5003;15344;52.342;-1.290;2022-07-12T11:44:58;2;2;
28026;PMS5003;15344;52.342;-1.290;2022-07-12T11:47:24;3;3;
28026;PMS5003;15344;52.342;-1.290;2022-07-12T11:49:50;3;3;
28026;PMS5003;15344;52.342;-1.290;2022-07-12T11:52:16;3;2;
28026;PMS5003;15344;52.342;-1.290;2022-07-12T11:54:41;2;2;
28026;PMS5003;15344;52.342;-1.290;2022-07-12T11:57:07;3;2;
28026;PMS5003;15344;52.342;-1.290;2022-07-12T11:59:33;2;2;
28026;PMS5003;15344;52.342;-1.290;2022-07-12T12:02:02;3;1;
28026;PMS5003;15344;52.342;-1.290;2022-07-12T12:04:25;3;3;
28026;PMS5003;15344;52.342;-1.290;2022-07-12T12:06:50;5;3;
28026;PMS5003;15344;52.342;-1.290;2022-07-12T12:09:16;3;3;
28026;PMS5003;15344;52.342;-1.290;2022-07-12T12:11:41;3;3;
28026;PMS5003;15344;52.342;-1.290;2022-07-12T12:14:07;3;2;
28026;PMS5003;15344;52.342;-1.290;2022-07-12T12:16:33;4;2;
28026;PMS5003;15344;52.342;-1.290;2022-07-12T12:19:00;4;2;
28026;PMS5003;15344;52.342;-1.290;2022-07-12T12:21:25;4;2;
28026;PMS5003;15344;52.342;-1.290;2022-07-12T12:23:53;6;2;
28026;PMS5003;15344;52.342;-1.290;2022-07-12T12:26:17;3;3;
28026;PMS5003;15344;52.342;-1.290;2022-07-12T12:28:45;1;1;
28026;PMS5003;15344;52.342;-1.290;2022-07-12T12:31:08;2;2;
28026;PMS5003;15344;52.342;-1.290;2022-07-12T12:33:33;4;2;
28026;PMS5003;15344;52.342;-1.290;2022-07-12T12:38:25;4;3;
28026;PMS5003;15344;52.342;-1.290;2022-07-12T12:40:50;1;1;
28026;PMS5003;15344;52.342;-1.290;2022-07-12T12:43:18;2;2;
28026;PMS5003;15344;52.342;-1.290;2022-07-12T12:45:50;3;3;
28026;PMS5003;15344;52.342;-1.290;2022-07-12T12:48:07;3;2;
28026;PMS5003;15344;52.342;-1.290;2022-07-12T12:50:37;3;2;
28026;PMS5003;15344;52.342;-1.290;2022-07-12T12:52:59;1;1;
28026;PMS5003;15344;52.342;-1.290;2022-07-12T12:55:25;3;3;
28026;PMS5003;15344;52.342;-1.290;2022-07-12T12:57:50;1;1;
28026;PMS5003;15344;52.342;-1.290;2022-07-12T13:00:16;2;2;
28026;PMS5003;15344;52.342;-1.290;2022-07-12T13:02:42;2;2;
28026;PMS5003;15344;52.342;-1.290;2022-07-12T13:05:07;1;1;
28026;PMS5003;15344;52.342;-1.290;2022-07-12T13:07:33;2;2;
28026;PMS5003;15344;52.342;-1.290;2022-07-12T13:09:59;3;3;
28026;PMS5003;15344;52.342;-1.290;2022-07-12T13:12:25;2;2;
28026;PMS5003;15344;52.342;-1.290;2022-07-12T13:14:50;3;3;
28026;PMS5003;15344;52.342;-1.290;2022-07-12T13:17:16;3;3;
28026;PMS5003;15344;52.342;-1.290;2022-07-12T13:19:41;2;2;
28026;PMS5003;15344;52.342;-1.290;2022-07-12T13:22:07;1;1;
28026;PMS5003;15344;52.342;-1.290;2022-07-12T13:24:33;1;1;
28026;PMS5003;15344;52.342;-1.290;2022-07-12T13:26:59;3;1;
28026;PMS5003;15344;52.342;-1.290;2022-07-12T13:29:25;4;3;
28026;PMS5003;15344;52.342;-1.290;2022-07-12T13:31:50;2;2;
28026;PMS5003;15344;52.342;-1.290;2022-07-12T13:34:16;1;1;
28026;PMS5003;15344;52.342;-1.290;2022-07-12T13:36:42;3;3;
28026;PMS5003;15344;52.342;-1.290;2022-07-12T13:39:07;1;1;
28026;PMS5003;15344;52.342;-1.290;2022-07-12T13:41:33;3;3;
28026;PMS5003;15344;52.342;-1.290;2022-07-12T13:43:59;3;3;
28026;PMS5003;15344;52.342;-1.290;2022-07-12T13:46:24;0;0;
28026;PMS5003;15344;52.342;-1.290;2022-07-12T13:48:50;2;2;
28026;PMS5003;15344;52.342;-1.290;2022-07-12T13:51:16;5;5;
28026;PMS5003;15344;52.342;-1.290;2022-07-12T13:53:41;12;12;
28026;PMS5003;15344;52.342;-1.290;2022-07-12T13:56:07;4;4;
28026;PMS5003;15344;52.342;-1.290;2022-07-12T13:58:33;5;4;
28026;PMS5003;15344;52.342;-1.290;2022-07-12T14:00:58;4;2;
28026;PMS5003;15344;52.342;-1.290;2022-07-12T14:03:24;2;2;
28026;PMS5003;15344;52.342;-1.290;2022-07-12T14:05:50;1;1;
28026;PMS5003;15344;52.342;-1.290;2022-07-12T14:08:16;1;1;
28026;PMS5003;15344;52.342;-1.290;2022-07-12T14:10:41;3;1;
28026;PMS5003;15344;52.342;-1.290;2022-07-12T14:13:07;2;2;
28026;PMS5003;15344;52.342;-1.290;2022-07-12T14:15:33;1;0;
28026;PMS5003;15344;52.342;-1.290;2022-07-12T14:17:58;2;2;
28026;PMS5003;15344;52.342;-1.290;2022-07-12T14:20:24;1;1;
28026;PMS5003;15344;52.342;-1.290;2022-07-12T14:22:50;2;2;
28026;PMS5003;15344;52.342;-1.290;2022-07-12T14:25:15;2;2;
28026;PMS5003;15344;52.342;-1.290;2022-07-12T14:27:42;2;2;
28026;PMS5003;15344;52.342;-1.290;2022-07-12T14:30:07;4;2;
28026;PMS5003;15344;52.342;-1.290;2022-07-12T14:32:32;5;5;
28026;PMS5003;15344;52.342;-1.290;2022-07-12T14:34:58;5;3;
28026;PMS5003;15344;52.342;-1.290;2022-07-12T14:37:24;4;3;
28026;PMS5003;15344;52.342;-1.290;2022-07-12T14:39:50;4;4;
28026;PMS5003;15344;52.342;-1.290;2022-07-12T14:42:15;3;3;
28026;PMS5003;15344;52.342;-1.290;2022-07-12T14:44:41;7;4;
28026;PMS5003;15344;52.342;-1.290;2022-07-12T14:47:07;4;3;
28026;PMS5003;15344;52.342;-1.290;2022-07-12T14:49:32;4;3;
28026;PMS5003;15344;52.342;-1.290;2022-07-12T14:51:58;3;2;
28026;PMS5003;15344;52.342;-1.290;2022-07-12T14:54:24;2;2;
28026;PMS5003;15344;52.342;-1.290;2022-07-12T14:56:49;2;2;
28026;PMS5003;15344;52.342;-1.290;2022-07-12T14:59:15;2;2;
28026;PMS5003;15344;52.342;-1.290;2022-07-12T15:01:41;3;3;
28026;PMS5003;15344;52.342;-1.290;2022-07-12T15:04:07;2;2;
28026;PMS5003;15344;52.342;-1.290;2022-07-12T15:06:33;3;2;
28026;PMS5003;15344;52.342;-1.290;2022-07-12T15:08:58;3;3;
28026;PMS5003;15344;52.342;-1.290;2022-07-12T15:11:24;3;3;
28026;PMS5003;15344;52.342;-1.290;2022-07-12T15:13:49;3;1;
28026;PMS5003;15344;52.342;-1.290;2022-07-12T15:16:15;5;3;
28026;PMS5003;15344;52.342;-1.290;2022-07-12T15:18:41;2;2;
28026;PMS5003;15344;52.342;-1.290;2022-07-12T15:21:06;2;2;
28026;PMS5003;15344;52.342;-1.290;2022-07-12T15:23:32;3;3;
28026;PMS5003;15344;52.342;-1.290;2022-07-12T15:25:59;1;1;
28026;PMS5003;15344;52.342;-1.290;2022-07-12T15:28:25;2;2;
28026;PMS5003;15344;52.342;-1.290;2022-07-12T15:30:49;2;2;
28026;PMS5003;15344;52.342;-1.290;2022-07-12T15:33:15;1;1;
28026;PMS5003;15344;52.342;-1.290;2022-07-12T15:35:41;1;1;
28026;PMS5003;15344;52.342;-1.290;2022-07-12T15:38:07;1;1;
28026;PMS5003;15344;52.342;-1.290;2022-07-12T15:40:32;1;1;
28026;PMS5003;15344;52.342;-1.290;2022-07-12T15:42:58;2;2;
28026;PMS5003;15344;52.342;-1.290;2022-07-12T15:45:23;1;1;
28026;PMS5003;15344;52.342;-1.290;2022-07-12T15:47:49;4;2;
28026;PMS5003;15344;52.342;-1.290;2022-07-12T15:50:15;1;1;
28026;PMS5003;15344;52.342;-1.290;2022-07-12T15:52:41;4;4;
28026;PMS5003;15344;52.342;-1.290;2022-07-12T15:55:07;2;1;
28026;PMS5003;15344;52.342;-1.290;2022-07-12T15:57:32;2;2;
28026;PMS5003;15344;52.342;-1.290;2022-07-12T15:59:58;4;3;
28026;PMS5003;15344;52.342;-1.290;2022-07-12T16:02:23;4;4;
28026;PMS5003;15344;52.342;-1.290;2022-07-12T16:04:49;7;7;
28026;PMS5003;15344;52.342;-1.290;2022-07-12T16:07:15;3;3;
28026;PMS5003;15344;52.342;-1.290;2022-07-12T16:09:40;4;4;
28026;PMS5003;15344;52.342;-1.290;2022-07-12T16:12:07;1;1;
28026;PMS5003;15344;52.342;-1.290;2022-07-12T16:14:32;2;2;
28026;PMS5003;15344;52.342;-1.290;2022-07-12T16:16:58;3;3;
28026;PMS5003;15344;52.342;-1.290;2022-07-12T16:19:24;5;5;
28026;PMS5003;15344;52.342;-1.290;2022-07-12T16:21:49;3;3;
28026;PMS5003;15344;52.342;-1.290;2022-07-12T16:24:15;2;2;
28026;PMS5003;15344;52.342;-1.290;2022-07-12T16:26:41;2;2;
28026;PMS5003;15344;52.342;-1.290;2022-07-12T16:29:06;3;3;
28026;PMS5003;15344;52.342;-1.290;2022-07-12T16:31:32;4;4;
28026;PMS5003;15344;52.342;-1.290;2022-07-12T16:33:58;5;3;
28026;PMS5003;15344;52.342;-1.290;2022-07-12T16:36:24;3;3;
28026;PMS5003;15344;52.342;-1.290;2022-07-12T16:38:50;3;3;
28026;PMS5003;15344;52.342;-1.290;2022-07-12T16:41:15;4;4;
28026;PMS5003;15344;52.342;-1.290;2022-07-12T16:43:41;5;3;
28026;PMS5003;15344;52.342;-1.290;2022-07-12T16:46:06;7;5;
28026;PMS5003;15344;52.342;-1.290;2022-07-12T16:48:32;5;5;
28026;PMS5003;15344;52.342;-1.290;2022-07-12T16:50:58;11;8;
28026;PMS5003;15344;52.342;-1.290;2022-07-12T16:53:24;4;3;
28026;PMS5003;15344;52.342;-1.290;2022-07-12T16:55:49;7;4;
28026;PMS5003;15344;52.342;-1.290;2022-07-12T16:58:15;5;3;